Time;durP1;ratioP1;P1;durP2;ratioP2;P2;SDS_P1;SDS_P2;PMS_P1;PMS_P2;Temp;Humidity;BMP_temperature;BMP_pressure;BME280_temperature;BME280_humidity;BME280_pressure;Samples;Min_cycle;Max_cycle;Signal;HPM_P1;HPM_P2
2023/08/24 00:02:10;;;;;;;;;;;23.90;71.20;;;;;;4204891;28;19935;-42
2023/08/24 00:04:51;;;;;;;;;;;23.90;71.20;;;;;;4172219;28;20380;-42
2023/08/24 00:07:32;;;;;;;;;;;23.90;72.20;;;;;;4189183;28;20617;-43
2023/08/24 00:10:13;;;;;;;;;;;23.90;71.30;;;;;;4187872;28;20009;-42
2023/08/24 00:12:53;;;;;;;;;;;23.90;71.30;;;;;;4200740;28;20036;-43
2023/08/24 00:15:35;;;;;;;;;;;23.90;72.20;;;;;;4188429;28;19932;-42
2023/08/24 00:18:19;;;;;;;;;;;23.90;71.30;;;;;;4172494;28;19932;-43
2023/08/24 00:20:59;;;;;;;;;;;23.90;71.30;;;;;;4172528;28;20437;-43
2023/08/24 00:23:40;;;;;;;;;;;23.80;71.30;;;;;;4183151;28;20398;-42
2023/08/24 00:26:20;;;;;;;;;;;23.80;71.30;;;;;;4188922;28;19993;-43
2023/08/24 00:29:01;;;;;;;;;;;23.80;71.30;;;;;;4188486;28;19935;-43
2023/08/24 00:31:42;;;;;;;;;;;23.80;72.10;;;;;;4189069;28;20287;-43
2023/08/24 00:34:26;;;;;;;;;;;23.80;71.30;;;;;;4186974;28;19970;-43
2023/08/24 00:37:06;;;;;;;;;;;23.80;71.30;;;;;;4188907;28;20041;-43
2023/08/24 00:39:47;;;;;;;;;;;23.80;72.20;;;;;;4187308;28;19931;-43
2023/08/24 00:42:27;;;;;;;;;;;23.80;71.30;;;;;;4176103;28;19985;-43
2023/08/24 00:45:10;;;;;;;;;;;23.70;71.30;;;;;;4171334;28;20466;-43
2023/08/24 00:47:51;;;;;;;;;;;23.70;71.30;;;;;;4187278;28;19935;-43
2023/08/24 00:50:34;;;;;;;;;;;23.70;71.30;;;;;;4188009;28;19935;-43
2023/08/24 00:53:15;;;;;;;;;;;23.70;71.30;;;;;;4187212;28;20302;-43
2023/08/24 00:55:56;;;;;;;;;;;23.70;71.30;;;;;;4188271;28;19935;-43
2023/08/24 00:58:39;;;;;;;;;;;23.70;71.30;;;;;;4187365;28;20370;-43
2023/08/24 01:01:19;;;;;;;;;;;23.70;71.40;;;;;;4187868;28;20410;-42
2023/08/24 01:04:00;;;;;;;;;;;23.70;71.40;;;;;;4171597;28;20026;-51
2023/08/24 01:06:42;;;;;;;;;;;23.60;71.20;;;;;;4181526;28;20288;-50
2023/08/24 01:09:23;;;;;;;;;;;23.70;71.40;;;;;;4188037;28;19931;-51
2023/08/24 01:12:07;;;;;;;;;;;23.60;72.10;;;;;;4174695;28;20029;-51
2023/08/24 01:14:51;;;;;;;;;;;23.60;71.30;;;;;;4191148;28;20004;-53
2023/08/24 01:17:33;;;;;;;;;;;23.60;71.30;;;;;;4203117;28;19931;-51
2023/08/24 01:20:14;;;;;;;;;;;23.60;71.40;;;;;;4204471;28;19931;-52
2023/08/24 01:23:02;;;;;;;;;;;23.60;71.40;;;;;;4194312;28;19930;-51
2023/08/24 01:25:47;;;;;;;;;;;23.50;71.40;;;;;;4202784;28;19938;-52
2023/08/24 01:28:29;;;;;;;;;;;23.60;71.40;;;;;;4204555;27;20405;-51
2023/08/24 01:31:10;;;;;;;;;;;23.50;71.40;;;;;;4203205;28;19935;-51
2023/08/24 01:33:50;;;;;;;;;;;23.50;71.40;;;;;;4187241;28;19934;-51
2023/08/24 01:36:31;;;;;;;;;;;23.50;71.50;;;;;;4169803;28;19931;-51
2023/08/24 01:39:15;;;;;;;;;;;23.50;72.30;;;;;;4169441;28;19943;-54
2023/08/24 01:41:57;;;;;;;;;;;23.50;71.50;;;;;;4170780;28;20292;-54
2023/08/24 01:44:42;;;;;;;;;;;23.40;71.50;;;;;;4176223;28;19938;-54
2023/08/24 01:47:25;;;;;;;;;;;23.40;71.40;;;;;;4202833;28;19935;-52
2023/08/24 01:50:07;;;;;;;;;;;23.40;72.30;;;;;;4204059;28;19975;-52
2023/08/24 01:52:48;;;;;;;;;;;23.40;71.40;;;;;;4193501;28;19934;-50
2023/08/24 01:55:29;;;;;;;;;;;23.40;71.40;;;;;;4187438;28;20005;-53
2023/08/24 01:58:10;;;;;;;;;;;23.40;71.40;;;;;;4187942;28;20299;-50
2023/08/24 02:00:53;;;;;;;;;;;23.40;71.50;;;;;;4187454;28;19935;-51
2023/08/24 02:03:33;;;;;;;;;;;23.40;71.50;;;;;;4199827;28;19932;-52
2023/08/24 02:06:14;;;;;;;;;;;23.40;72.40;;;;;;4190112;28;19935;-50
2023/08/24 02:08:55;;;;;;;;;;;23.40;71.50;;;;;;4190224;28;19931;-52
2023/08/24 02:11:36;;;;;;;;;;;23.30;71.50;;;;;;4196243;28;19931;-41
2023/08/24 02:14:17;;;;;;;;;;;23.30;71.50;;;;;;4190354;28;19936;-41
2023/08/24 02:16:59;;;;;;;;;;;23.30;71.50;;;;;;4177700;28;20313;-41
2023/08/24 02:19:41;;;;;;;;;;;23.30;71.60;;;;;;4191033;28;19947;-43
2023/08/24 02:22:22;;;;;;;;;;;23.30;71.60;;;;;;4189434;28;20377;-43
2023/08/24 02:25:04;;;;;;;;;;;23.30;71.70;;;;;;4190477;28;19932;-43
2023/08/24 02:27:45;;;;;;;;;;;23.30;71.70;;;;;;4189568;28;20025;-43
2023/08/24 02:30:26;;;;;;;;;;;23.30;71.70;;;;;;4188970;28;20425;-41
2023/08/24 02:33:08;;;;;;;;;;;23.30;71.80;;;;;;4191920;28;19931;-43
2023/08/24 02:35:49;;;;;;;;;;;23.30;71.80;;;;;;4189738;28;20394;-43
2023/08/24 02:38:30;;;;;;;;;;;23.30;71.80;;;;;;4188991;28;19935;-43
2023/08/24 02:41:12;;;;;;;;;;;23.30;71.80;;;;;;4205875;28;19997;-42
2023/08/24 02:43:52;;;;;;;;;;;23.30;71.80;;;;;;4170884;28;19935;-41
2023/08/24 02:46:33;;;;;;;;;;;23.20;71.80;;;;;;4171499;28;19970;-42
2023/08/24 02:49:16;;;;;;;;;;;23.20;71.80;;;;;;4172342;28;19939;-42
2023/08/24 02:51:57;;;;;;;;;;;23.20;71.70;;;;;;4185898;28;19931;-42
2023/08/24 02:54:37;;;;;;;;;;;23.20;71.70;;;;;;4189860;28;19935;-42
2023/08/24 02:57:18;;;;;;;;;;;23.20;71.80;;;;;;4206774;28;19931;-42
2023/08/24 02:59:59;;;;;;;;;;;23.20;71.80;;;;;;4206035;28;19931;-42
2023/08/24 03:02:40;;;;;;;;;;;23.20;71.80;;;;;;4200185;28;20025;-42
2023/08/24 03:05:23;;;;;;;;;;;23.20;71.90;;;;;;4206756;28;19952;-42
2023/08/24 03:08:04;;;;;;;;;;;23.20;71.90;;;;;;4205641;28;19935;-42
2023/08/24 03:10:45;;;;;;;;;;;23.20;71.90;;;;;;4205077;28;19950;-42
2023/08/24 03:13:26;;;;;;;;;;;23.10;72.80;;;;;;4172740;28;20604;-42
2023/08/24 03:16:07;;;;;;;;;;;23.10;72.00;;;;;;4183615;28;19931;-42
2023/08/24 03:18:50;;;;;;;;;;;23.10;71.90;;;;;;4171872;28;19935;-42
2023/08/24 03:21:33;;;;;;;;;;;23.10;72.90;;;;;;4162358;28;19974;-43
2023/08/24 03:24:13;;;;;;;;;;;23.10;72.10;;;;;;4178199;28;19931;-42
2023/08/24 03:26:54;;;;;;;;;;;23.10;72.10;;;;;;4190379;28;20295;-41
2023/08/24 03:29:35;;;;;;;;;;;23.10;72.20;;;;;;4189179;28;19932;-42
2023/08/24 03:32:16;;;;;;;;;;;23.10;72.10;;;;;;4188969;28;19935;-45
2023/08/24 03:34:59;;;;;;;;;;;23.10;72.10;;;;;;4175969;28;19932;-42
2023/08/24 03:37:42;;;;;;;;;;;23.10;72.20;;;;;;4187633;28;19936;-42
2023/08/24 03:40:23;;;;;;;;;;;23.10;72.20;;;;;;4189249;28;19935;-41
2023/08/24 03:43:04;;;;;;;;;;;23.10;72.20;;;;;;4189504;28;20275;-43
2023/08/24 03:45:45;;;;;;;;;;;23.10;72.30;;;;;;4173906;28;19947;-41
2023/08/24 03:48:25;;;;;;;;;;;23.10;72.20;;;;;;4189056;28;19935;-43
2023/08/24 03:51:06;;;;;;;;;;;23.10;72.30;;;;;;4186494;28;20387;-42
2023/08/24 03:53:50;;;;;;;;;;;23.10;73.30;;;;;;4171491;28;20070;-42
2023/08/24 03:56:32;;;;;;;;;;;23.00;72.30;;;;;;4176004;28;19931;-42
2023/08/24 03:59:12;;;;;;;;;;;23.00;72.30;;;;;;4205741;28;19989;-43
2023/08/24 04:01:54;;;;;;;;;;;23.10;72.40;;;;;;4200546;28;19977;-43
2023/08/24 04:04:35;;;;;;;;;;;23.00;72.40;;;;;;4187851;28;20006;-41
2023/08/24 04:07:16;;;;;;;;;;;23.00;72.40;;;;;;4195460;28;19986;-42
2023/08/24 04:09:58;;;;;;;;;;;23.00;73.30;;;;;;4184727;28;19935;-43
2023/08/24 04:12:39;;;;;;;;;;;23.00;72.50;;;;;;4193669;28;20263;-42
2023/08/24 04:15:19;;;;;;;;;;;23.00;72.60;;;;;;4203445;28;19971;-42
2023/08/24 04:18:00;;;;;;;;;;;23.00;73.40;;;;;;4190253;28;19932;-42
2023/08/24 04:20:41;;;;;;;;;;;23.00;72.60;;;;;;4195230;28;19934;-42
2023/08/24 04:23:25;;;;;;;;;;;23.00;72.60;;;;;;4200789;28;19935;-42
2023/08/24 04:26:07;;;;;;;;;;;23.00;72.60;;;;;;4203447;28;20040;-42
2023/08/24 04:28:48;;;;;;;;;;;23.00;72.70;;;;;;4204799;28;20263;-41
2023/08/24 04:31:28;;;;;;;;;;;23.00;72.80;;;;;;4202407;28;19930;-42
2023/08/24 04:34:11;;;;;;;;;;;23.00;73.70;;;;;;4205466;28;20378;-42
2023/08/24 04:36:51;;;;;;;;;;;23.00;73.10;;;;;;4171545;28;19936;-42
2023/08/24 04:39:32;;;;;;;;;;;23.00;73.10;;;;;;4172253;28;19936;-43
2023/08/24 04:42:14;;;;;;;;;;;23.00;74.00;;;;;;4171326;28;20491;-42
2023/08/24 04:44:55;;;;;;;;;;;23.00;73.10;;;;;;4186066;28;20386;-42
2023/08/24 04:47:38;;;;;;;;;;;23.00;73.10;;;;;;4188634;28;20053;-42
2023/08/24 04:50:19;;;;;;;;;;;23.00;73.10;;;;;;4188586;28;19946;-42
2023/08/24 04:53:00;;;;;;;;;;;22.90;73.10;;;;;;4188495;28;19935;-42
2023/08/24 04:55:41;;;;;;;;;;;23.00;73.20;;;;;;4185598;28;19962;-42
2023/08/24 04:58:24;;;;;;;;;;;22.90;73.10;;;;;;4203411;28;19931;-42
2023/08/24 05:01:05;;;;;;;;;;;22.90;73.20;;;;;;4170778;28;19935;-42
2023/08/24 05:03:46;;;;;;;;;;;22.90;73.20;;;;;;4171262;28;19932;-42
2023/08/24 05:06:26;;;;;;;;;;;22.90;74.10;;;;;;4179559;28;19932;-42
2023/08/24 05:09:08;;;;;;;;;;;22.90;73.30;;;;;;4172265;28;19936;-42
2023/08/24 05:11:48;;;;;;;;;;;22.90;73.40;;;;;;4187181;28;19932;-42
2023/08/24 05:14:30;;;;;;;;;;;22.90;73.50;;;;;;4185915;28;20291;-42
2023/08/24 05:17:11;;;;;;;;;;;22.90;73.60;;;;;;4181459;28;19935;-50
2023/08/24 05:19:53;;;;;;;;;;;22.80;73.50;;;;;;4187830;28;19935;-51
2023/08/24 05:22:34;;;;;;;;;;;22.80;73.50;;;;;;4187773;28;19932;-50
2023/08/24 05:25:16;;;;;;;;;;;22.80;73.50;;;;;;4184207;28;19951;-50
2023/08/24 05:27:57;;;;;;;;;;;22.80;73.70;;;;;;4203978;28;20448;-51
2023/08/24 05:30:39;;;;;;;;;;;22.90;74.20;;;;;;4203939;28;19950;-53
2023/08/24 05:33:20;;;;;;;;;;;22.90;74.60;;;;;;4204362;28;19981;-54
2023/08/24 05:36:01;;;;;;;;;;;23.00;73.80;;;;;;4198725;28;19931;-52
2023/08/24 05:38:46;;;;;;;;;;;22.90;73.60;;;;;;4203914;28;19972;-53
2023/08/24 05:41:39;;;;;;;;;;;22.90;74.40;;;;;;4202640;28;19931;-51
2023/08/24 05:44:21;;;;;;;;;;;22.90;73.40;;;;;;4196905;28;20025;-54
2023/08/24 05:47:03;;;;;;;;;;;22.90;73.40;;;;;;4171017;28;19935;-50
2023/08/24 05:49:44;;;;;;;;;;;22.90;73.40;;;;;;4170877;28;19940;-49
2023/08/24 05:52:25;;;;;;;;;;;22.90;73.30;;;;;;4181318;28;21962;-48
2023/08/24 05:55:06;;;;;;;;;;;22.90;73.40;;;;;;4182897;28;20357;-50
2023/08/24 05:57:47;;;;;;;;;;;22.90;74.30;;;;;;4155951;28;19952;-53
2023/08/24 06:00:28;;;;;;;;;;;22.90;73.40;;;;;;4156903;28;19953;-54
2023/08/24 06:03:11;;;;;;;;;;;22.90;73.40;;;;;;4174425;28;19951;-54
2023/08/24 06:05:51;;;;;;;;;;;22.90;73.40;;;;;;4189225;28;19935;-54
2023/08/24 06:08:32;;;;;;;;;;;22.90;73.40;;;;;;4188138;27;19931;-52
2023/08/24 06:11:12;;;;;;;;;;;22.90;73.40;;;;;;4187037;28;20029;-53
2023/08/24 06:13:54;;;;;;;;;;;22.90;74.40;;;;;;4189122;28;20340;-55
2023/08/24 06:16:35;;;;;;;;;;;22.90;73.60;;;;;;4188093;28;19931;-51
2023/08/24 06:19:16;;;;;;;;;;;22.80;73.60;;;;;;4172004;28;19936;-51
2023/08/24 06:21:57;;;;;;;;;;;22.80;73.70;;;;;;4170530;28;20307;-51
2023/08/24 06:24:38;;;;;;;;;;;22.90;73.80;;;;;;4179556;28;20296;-51
2023/08/24 06:27:19;;;;;;;;;;;22.90;73.80;;;;;;4169879;28;20394;-51
2023/08/24 06:30:00;;;;;;;;;;;22.90;73.90;;;;;;4168935;28;19935;-51
2023/08/24 06:32:41;;;;;;;;;;;22.90;73.90;;;;;;4171721;28;20026;-51
2023/08/24 06:35:23;;;;;;;;;;;23.00;74.00;;;;;;4170825;28;19932;-52
2023/08/24 06:38:04;;;;;;;;;;;23.00;74.00;;;;;;4169878;28;19931;-50
2023/08/24 06:40:45;;;;;;;;;;;23.00;73.90;;;;;;4180772;28;19932;-52
2023/08/24 06:43:26;;;;;;;;;;;23.10;73.90;;;;;;4192658;28;20393;-42
2023/08/24 06:46:08;;;;;;;;;;;23.20;74.20;;;;;;4195843;28;19931;-43
2023/08/24 06:48:49;;;;;;;;;;;23.20;74.10;;;;;;4186943;28;19978;-43
2023/08/24 06:51:31;;;;;;;;;;;23.30;73.90;;;;;;4185931;28;20066;-43
2023/08/24 06:54:14;;;;;;;;;;;23.40;73.80;;;;;;4188496;28;19977;-42
2023/08/24 06:56:55;;;;;;;;;;;23.40;73.60;;;;;;4179458;28;19982;-43
2023/08/24 06:59:36;;;;;;;;;;;23.40;73.50;;;;;;4201658;28;20387;-43
2023/08/24 07:02:17;;;;;;;;;;;23.50;73.60;;;;;;4188791;28;20062;-43
2023/08/24 07:04:58;;;;;;;;;;;23.50;73.40;;;;;;4189746;28;19993;-43
2023/08/24 07:07:40;;;;;;;;;;;23.60;73.30;;;;;;4188848;28;19935;-43
2023/08/24 07:10:21;;;;;;;;;;;23.60;73.20;;;;;;4188657;28;20429;-43
2023/08/24 07:13:02;;;;;;;;;;;23.60;73.10;;;;;;4206675;28;20074;-43
2023/08/24 07:15:43;;;;;;;;;;;23.60;72.90;;;;;;4205516;28;20018;-43
2023/08/24 07:18:23;;;;;;;;;;;23.70;72.90;;;;;;4171855;28;19931;-43
2023/08/24 07:21:04;;;;;;;;;;;23.70;73.70;;;;;;4189672;28;19951;-43
2023/08/24 07:23:46;;;;;;;;;;;23.70;72.70;;;;;;4186608;28;20010;-42
2023/08/24 07:26:27;;;;;;;;;;;23.70;72.70;;;;;;4191548;28;19931;-42
2023/08/24 07:29:07;;;;;;;;;;;23.70;72.70;;;;;;4205613;28;20025;-42
2023/08/24 07:31:48;;;;;;;;;;;23.70;72.70;;;;;;4205184;28;19931;-42
2023/08/24 07:34:29;;;;;;;;;;;23.80;72.80;;;;;;4205870;28;20327;-51
2023/08/24 07:37:10;;;;;;;;;;;23.80;72.90;;;;;;4193196;28;19932;-54
2023/08/24 07:39:52;;;;;;;;;;;23.80;72.90;;;;;;4188433;28;20056;-52
2023/08/24 07:42:43;;;;;;;;;;;23.80;73.00;;;;;;4188894;28;19936;-52
2023/08/24 07:45:24;;;;;;;;;;;23.80;73.10;;;;;;4175555;28;19940;-44
2023/08/24 07:48:06;;;;;;;;;;;23.80;73.10;;;;;;4176608;28;20042;-42
2023/08/24 07:50:47;;;;;;;;;;;23.90;73.20;;;;;;4190106;28;19930;-42
2023/08/24 07:53:28;;;;;;;;;;;23.90;73.20;;;;;;4205041;28;20294;-42
2023/08/24 07:56:10;;;;;;;;;;;23.90;73.40;;;;;;4205245;28;20637;-42
2023/08/24 07:58:51;;;;;;;;;;;23.90;74.30;;;;;;4205742;28;20080;-42
2023/08/24 08:01:32;;;;;;;;;;;23.90;73.40;;;;;;4188277;28;19932;-42
2023/08/24 08:04:12;;;;;;;;;;;23.90;73.30;;;;;;4189059;28;19935;-42
2023/08/24 08:06:53;;;;;;;;;;;23.90;74.20;;;;;;4188390;28;19947;-50
2023/08/24 08:09:33;;;;;;;;;;;24.00;74.20;;;;;;4203952;28;19935;-42
2023/08/24 08:12:15;;;;;;;;;;;24.00;73.30;;;;;;4172683;28;19935;-42
2023/08/24 08:14:56;;;;;;;;;;;24.00;73.30;;;;;;4165370;28;20387;-43
2023/08/24 08:17:37;;;;;;;;;;;24.00;73.30;;;;;;4171783;28;19994;-42
2023/08/24 08:20:18;;;;;;;;;;;24.00;73.30;;;;;;4177054;28;20395;-43
2023/08/24 08:22:59;;;;;;;;;;;24.00;73.30;;;;;;4188516;28;20045;-43
2023/08/24 08:25:42;;;;;;;;;;;24.10;74.10;;;;;;4188212;28;19935;-42
2023/08/24 08:28:24;;;;;;;;;;;24.10;73.20;;;;;;4204826;28;19935;-42
2023/08/24 08:31:05;;;;;;;;;;;24.10;73.10;;;;;;4180748;28;19931;-42
2023/08/24 08:33:47;;;;;;;;;;;24.10;74.00;;;;;;4163740;28;20316;-42
2023/08/24 08:36:29;;;;;;;;;;;24.20;73.10;;;;;;4186897;28;19936;-43
2023/08/24 08:39:10;;;;;;;;;;;24.20;72.80;;;;;;4187790;28;20354;-43
2023/08/24 08:41:51;;;;;;;;;;;24.30;72.90;;;;;;4163067;28;19935;-52
2023/08/24 08:44:33;;;;;;;;;;;24.30;72.80;;;;;;4171074;28;19932;-52
2023/08/24 08:47:15;;;;;;;;;;;24.30;72.80;;;;;;4167854;28;19963;-53
2023/08/24 08:49:56;;;;;;;;;;;24.30;72.80;;;;;;4182515;28;19988;-52
2023/08/24 08:52:37;;;;;;;;;;;24.30;72.70;;;;;;4172601;28;19974;-54
2023/08/24 08:55:18;;;;;;;;;;;24.40;72.60;;;;;;4172560;28;20284;-51
2023/08/24 08:57:59;;;;;;;;;;;24.40;72.50;;;;;;4186960;28;19967;-52
2023/08/24 09:00:42;;;;;;;;;;;24.40;72.30;;;;;;4186751;28;19936;-51
2023/08/24 09:03:23;;;;;;;;;;;24.50;72.40;;;;;;4204238;28;19931;-51
2023/08/24 09:06:04;;;;;;;;;;;24.50;72.40;;;;;;4204375;28;19932;-55
2023/08/24 09:08:46;;;;;;;;;;;24.50;72.40;;;;;;4204011;28;19973;-43
2023/08/24 09:11:26;;;;;;;;;;;24.50;72.20;;;;;;4201183;28;20383;-43
2023/08/24 09:14:07;;;;;;;;;;;24.50;72.10;;;;;;4204452;28;19943;-43
2023/08/24 09:16:50;;;;;;;;;;;24.50;72.10;;;;;;4204140;28;19950;-43
2023/08/24 09:19:31;;;;;;;;;;;24.50;72.00;;;;;;4199867;28;19975;-42
2023/08/24 09:22:12;;;;;;;;;;;24.50;72.00;;;;;;4173753;28;20388;-43
2023/08/24 09:24:54;;;;;;;;;;;24.50;71.90;;;;;;4170949;28;19936;-43
2023/08/24 09:27:35;;;;;;;;;;;24.40;72.00;;;;;;4186544;28;20433;-45
2023/08/24 09:30:16;;;;;;;;;;;24.40;72.10;;;;;;4187576;28;20013;-43
2023/08/24 09:33:01;;;;;;;;;;;24.40;72.10;;;;;;4187931;28;19954;-42
2023/08/24 09:35:42;;;;;;;;;;;24.40;72.10;;;;;;4204276;28;20069;-43
2023/08/24 09:38:23;;;;;;;;;;;24.40;72.10;;;;;;4204093;28;19935;-42
2023/08/24 09:41:04;;;;;;;;;;;24.40;72.10;;;;;;4169484;28;20066;-42
2023/08/24 09:43:45;;;;;;;;;;;24.40;72.20;;;;;;4171238;28;19951;-43
2023/08/24 09:46:26;;;;;;;;;;;24.40;72.30;;;;;;4170643;28;19938;-42
2023/08/24 09:49:08;;;;;;;;;;;24.40;72.30;;;;;;4173041;28;20249;-43
2023/08/24 09:51:50;;;;;;;;;;;24.40;72.50;;;;;;4187708;28;19935;-43
2023/08/24 09:54:32;;;;;;;;;;;24.40;72.50;;;;;;4195376;28;20489;-43
2023/08/24 09:57:13;;;;;;;;;;;24.40;72.60;;;;;;4202878;28;19931;-43
2023/08/24 09:59:54;;;;;;;;;;;24.40;72.50;;;;;;4192531;28;19935;-42
2023/08/24 10:02:37;;;;;;;;;;;24.40;72.50;;;;;;4187263;28;19932;-43
2023/08/24 10:05:21;;;;;;;;;;;24.40;72.50;;;;;;4172405;28;20395;-42
2023/08/24 10:08:06;;;;;;;;;;;24.40;72.50;;;;;;4187571;28;20478;-42
2023/08/24 10:10:47;;;;;;;;;;;24.40;72.50;;;;;;4187227;28;19931;-43
2023/08/24 10:13:32;;;;;;;;;;;24.40;72.50;;;;;;4187150;28;20062;-43
2023/08/24 10:16:14;;;;;;;;;;;24.40;72.50;;;;;;4186174;28;20074;-43
2023/08/24 10:18:55;;;;;;;;;;;24.50;72.50;;;;;;4187101;28;19935;-44
2023/08/24 10:21:38;;;;;;;;;;;24.50;72.50;;;;;;4171531;28;20006;-43
2023/08/24 10:24:20;;;;;;;;;;;24.40;72.50;;;;;;4180929;28;19936;-52
2023/08/24 10:27:03;;;;;;;;;;;24.40;72.50;;;;;;4171818;28;19973;-44
2023/08/24 10:29:44;;;;;;;;;;;24.50;72.50;;;;;;4174264;28;19936;-51
2023/08/24 10:32:24;;;;;;;;;;;24.50;72.60;;;;;;4195862;28;19936;-51
2023/08/24 10:35:06;;;;;;;;;;;24.50;72.70;;;;;;4178838;28;20403;-43
2023/08/24 10:37:48;;;;;;;;;;;24.50;72.70;;;;;;4190137;28;20029;-55
2023/08/24 10:40:32;;;;;;;;;;;24.50;72.70;;;;;;4189578;28;20398;-56
2023/08/24 10:43:13;;;;;;;;;;;24.50;72.80;;;;;;4189680;28;20429;-51
2023/08/24 10:45:57;;;;;;;;;;;24.50;72.80;;;;;;4173066;28;19936;-55
2023/08/24 10:48:53;;;;;;;;;;;24.50;72.80;;;;;;4171941;28;20399;-55
2023/08/24 10:51:43;;;;;;;;;;;24.50;72.80;;;;;;4172496;28;19935;-55
2023/08/24 10:54:32;;;;;;;;;;;24.50;72.80;;;;;;4179540;28;19932;-55
2023/08/24 10:57:18;;;;;;;;;;;24.50;73.00;;;;;;4206192;28;19934;-54
2023/08/24 11:00:00;;;;;;;;;;;24.50;73.10;;;;;;4204790;28;19935;-51
2023/08/24 11:02:45;;;;;;;;;;;24.50;73.20;;;;;;4204936;28;19932;-52
2023/08/24 11:05:28;;;;;;;;;;;24.50;73.30;;;;;;4214727;27;19931;-44
2023/08/24 11:08:09;;;;;;;;;;;24.50;73.40;;;;;;4188396;28;20260;-43
2023/08/24 11:10:53;;;;;;;;;;;24.40;73.50;;;;;;4172793;28;20406;-47
2023/08/24 11:13:34;;;;;;;;;;;24.50;73.60;;;;;;4183248;28;20042;-51
2023/08/24 11:16:30;;;;;;;;;;;24.50;74.00;;;;;;4187107;28;19947;-51
2023/08/24 11:19:11;;;;;;;;;;;24.50;74.00;;;;;;4172396;28;20074;-50
2023/08/24 11:21:52;;;;;;;;;;;24.50;73.90;;;;;;4169923;28;20062;-50
2023/08/24 11:24:35;;;;;;;;;;;24.50;73.80;;;;;;4172795;28;19935;-51
2023/08/24 11:27:18;;;;;;;;;;;24.50;73.80;;;;;;4173258;28;19935;-53
2023/08/24 11:29:59;;;;;;;;;;;24.50;73.80;;;;;;4190969;28;19935;-51
2023/08/24 11:32:40;;;;;;;;;;;24.50;73.90;;;;;;4197467;28;19939;-50
2023/08/24 11:35:23;;;;;;;;;;;24.50;73.90;;;;;;4171503;28;19935;-54
2023/08/24 11:38:03;;;;;;;;;;;24.50;73.90;;;;;;4169947;28;19952;-52
2023/08/24 11:40:44;;;;;;;;;;;24.50;73.90;;;;;;4173196;28;19932;-51
2023/08/24 11:43:27;;;;;;;;;;;24.50;73.90;;;;;;4179848;28;20377;-52
2023/08/24 11:46:07;;;;;;;;;;;24.50;73.90;;;;;;4181246;28;19977;-53
2023/08/24 11:48:48;;;;;;;;;;;24.50;73.90;;;;;;4156588;28;19932;-53
2023/08/24 11:51:32;;;;;;;;;;;24.50;73.90;;;;;;4172912;28;20387;-54
2023/08/24 11:54:22;;;;;;;;;;;24.50;73.90;;;;;;4186125;28;19932;-43
2023/08/24 11:57:06;;;;;;;;;;;24.60;74.00;;;;;;4202833;28;19930;-44
2023/08/24 11:59:48;;;;;;;;;;;24.60;74.00;;;;;;4206039;27;19930;-43
2023/08/24 12:02:29;;;;;;;;;;;24.60;73.90;;;;;;4203736;27;19931;-44
2023/08/24 12:05:20;;;;;;;;;;;24.60;73.80;;;;;;4157207;28;19994;-43
2023/08/24 12:08:01;;;;;;;;;;;24.70;73.80;;;;;;4157110;28;20018;-43
2023/08/24 12:10:42;;;;;;;;;;;24.70;73.80;;;;;;4171561;28;19932;-42
2023/08/24 12:13:23;;;;;;;;;;;24.70;73.80;;;;;;4161752;28;20300;-42
2023/08/24 12:16:05;;;;;;;;;;;24.70;73.80;;;;;;4159491;28;20007;-42
2023/08/24 12:18:54;;;;;;;;;;;24.70;73.80;;;;;;4166877;28;19948;-42
2023/08/24 12:21:35;;;;;;;;;;;24.80;73.70;;;;;;4173357;28;19984;-43
2023/08/24 12:24:16;;;;;;;;;;;24.80;73.60;;;;;;4204605;28;19931;-42
2023/08/24 12:26:57;;;;;;;;;;;24.80;73.50;;;;;;4189524;28;20409;-42
2023/08/24 12:29:44;;;;;;;;;;;24.80;73.40;;;;;;4186412;28;20430;-43
2023/08/24 12:32:30;;;;;;;;;;;24.90;73.40;;;;;;4203199;28;19935;-43
2023/08/24 12:35:11;;;;;;;;;;;24.90;73.20;;;;;;4191339;28;20404;-41
2023/08/24 12:37:52;;;;;;;;;;;24.90;73.20;;;;;;4171693;28;19936;-41
2023/08/24 12:40:33;;;;;;;;;;;24.90;73.10;;;;;;4175046;28;19959;-41
2023/08/24 12:43:14;;;;;;;;;;;24.90;73.80;;;;;;4182123;28;20074;-42
2023/08/24 12:45:55;;;;;;;;;;;24.90;73.00;;;;;;4170997;28;19932;-42
2023/08/24 12:48:37;;;;;;;;;;;24.90;72.90;;;;;;4170535;28;19932;-42
2023/08/24 12:51:18;;;;;;;;;;;24.90;72.90;;;;;;4190754;28;20370;-43
2023/08/24 12:53:59;;;;;;;;;;;24.90;72.90;;;;;;4187107;28;20395;-42
2023/08/24 12:56:40;;;;;;;;;;;24.90;72.90;;;;;;4187750;28;19934;-42
2023/08/24 12:59:22;;;;;;;;;;;24.90;73.70;;;;;;4167858;28;19985;-42
2023/08/24 13:02:04;;;;;;;;;;;25.00;72.90;;;;;;4186715;28;20383;-42
2023/08/24 13:04:46;;;;;;;;;;;25.00;73.00;;;;;;4171435;28;19974;-42
2023/08/24 13:07:29;;;;;;;;;;;25.00;72.90;;;;;;4168585;28;19931;-42
2023/08/24 13:10:11;;;;;;;;;;;25.00;72.90;;;;;;4185830;28;19974;-42
2023/08/24 13:12:52;;;;;;;;;;;25.00;72.90;;;;;;4187768;28;19935;-42
2023/08/24 13:15:32;;;;;;;;;;;25.00;72.90;;;;;;4187837;28;20004;-42
2023/08/24 13:18:13;;;;;;;;;;;25.00;72.80;;;;;;4187575;28;19989;-42
2023/08/24 13:20:55;;;;;;;;;;;25.00;72.90;;;;;;4157406;28;19986;-42
2023/08/24 13:23:36;;;;;;;;;;;24.90;73.80;;;;;;4171231;28;19985;-42
2023/08/24 13:26:20;;;;;;;;;;;24.90;72.90;;;;;;4186093;28;20283;-42
2023/08/24 13:29:02;;;;;;;;;;;24.90;72.90;;;;;;4189428;28;19934;-42
2023/08/24 13:31:42;;;;;;;;;;;25.00;73.00;;;;;;4204806;28;20382;-43
2023/08/24 13:34:23;;;;;;;;;;;25.00;73.00;;;;;;4197087;28;20070;-42
2023/08/24 13:37:05;;;;;;;;;;;24.90;73.00;;;;;;4185551;28;19931;-42
2023/08/24 13:39:48;;;;;;;;;;;24.90;73.10;;;;;;4190399;28;20299;-42
2023/08/24 13:42:30;;;;;;;;;;;24.90;73.10;;;;;;4186108;28;20304;-39
2023/08/24 13:45:11;;;;;;;;;;;24.90;73.20;;;;;;4204432;28;20355;-38
2023/08/24 13:47:52;;;;;;;;;;;24.90;73.30;;;;;;4204679;28;20339;-37
2023/08/24 13:50:32;;;;;;;;;;;24.90;73.30;;;;;;4171217;28;19935;-38
2023/08/24 13:53:15;;;;;;;;;;;24.90;73.30;;;;;;4170027;28;20268;-38
2023/08/24 13:55:55;;;;;;;;;;;24.90;73.50;;;;;;4169387;28;19971;-39
2023/08/24 13:58:36;;;;;;;;;;;24.90;73.50;;;;;;4178355;28;19951;-37
2023/08/24 14:01:17;;;;;;;;;;;24.90;73.50;;;;;;4188952;28;20074;-38
2023/08/24 14:03:58;;;;;;;;;;;24.90;73.50;;;;;;4189493;28;19931;-39
2023/08/24 14:06:39;;;;;;;;;;;24.90;73.60;;;;;;4172896;28;19931;-37
2023/08/24 14:09:21;;;;;;;;;;;24.90;73.70;;;;;;4185887;28;20066;-38
2023/08/24 14:12:02;;;;;;;;;;;24.90;74.60;;;;;;4174728;28;19932;-39
2023/08/24 14:14:42;;;;;;;;;;;24.90;73.80;;;;;;4184359;28;19935;-38
2023/08/24 14:17:23;;;;;;;;;;;24.90;73.80;;;;;;4190304;28;19931;-38
2023/08/24 14:20:05;;;;;;;;;;;24.90;74.70;;;;;;4172690;28;19936;-40
2023/08/24 14:22:48;;;;;;;;;;;24.90;73.90;;;;;;4173344;28;19935;-39
2023/08/24 14:25:30;;;;;;;;;;;24.90;74.00;;;;;;4175769;28;19932;-39
2023/08/24 14:28:11;;;;;;;;;;;24.90;74.10;;;;;;4188116;28;20272;-40
2023/08/24 14:30:52;;;;;;;;;;;24.90;74.10;;;;;;4193657;28;19987;-40
2023/08/24 14:33:32;;;;;;;;;;;24.90;74.10;;;;;;4190157;28;19935;-40
2023/08/24 14:36:13;;;;;;;;;;;24.90;75.00;;;;;;4177347;28;19955;-40
2023/08/24 14:38:54;;;;;;;;;;;24.90;74.10;;;;;;4158393;28;19955;-39
2023/08/24 14:41:36;;;;;;;;;;;24.90;74.10;;;;;;4173570;28;19936;-39
2023/08/24 14:44:17;;;;;;;;;;;24.90;74.00;;;;;;4173047;28;19979;-40
2023/08/24 14:47:00;;;;;;;;;;;24.90;74.10;;;;;;4169419;28;19936;-40
2023/08/24 14:49:41;;;;;;;;;;;24.90;74.10;;;;;;4188036;28;19932;-39
2023/08/24 14:52:22;;;;;;;;;;;24.90;75.00;;;;;;4195802;28;20067;-40
2023/08/24 14:55:03;;;;;;;;;;;24.90;74.20;;;;;;4165221;28;19936;-39
2023/08/24 14:57:45;;;;;;;;;;;24.90;74.20;;;;;;4190850;28;19932;-37
2023/08/24 15:00:26;;;;;;;;;;;24.90;74.30;;;;;;4199358;28;19963;-37
2023/08/24 15:03:07;;;;;;;;;;;24.90;74.30;;;;;;4181895;28;19932;-37
2023/08/24 15:05:57;;;;;;;;;;;24.90;74.40;;;;;;4189635;28;19932;-37
2023/08/24 15:08:37;;;;;;;;;;;24.80;74.40;;;;;;4188797;28;19951;-37
2023/08/24 15:11:19;;;;;;;;;;;24.80;74.50;;;;;;4189294;28;20377;-37
2023/08/24 15:14:04;;;;;;;;;;;24.80;74.60;;;;;;4189606;28;19935;-39
2023/08/24 15:16:44;;;;;;;;;;;24.80;74.60;;;;;;4205266;27;20401;-40
2023/08/24 15:19:25;;;;;;;;;;;24.80;74.80;;;;;;4204629;28;20069;-40
2023/08/24 15:22:06;;;;;;;;;;;24.80;74.90;;;;;;4205510;27;19931;-40
2023/08/24 15:24:50;;;;;;;;;;;24.80;74.90;;;;;;4193938;28;19947;-39
2023/08/24 15:27:31;;;;;;;;;;;24.80;75.90;;;;;;4204343;28;19935;-40
2023/08/24 15:30:14;;;;;;;;;;;24.80;75.10;;;;;;4190367;28;20386;-39
2023/08/24 15:32:54;;;;;;;;;;;24.80;75.40;;;;;;4189036;28;20049;-40
2023/08/24 15:35:35;;;;;;;;;;;24.80;75.30;;;;;;4187810;28;20405;-39
2023/08/24 15:38:16;;;;;;;;;;;24.80;75.60;;;;;;4203376;28;19976;-39
2023/08/24 15:40:56;;;;;;;;;;;24.80;75.60;;;;;;4191806;28;20284;-39